Aeroporto :
LOGIN :

Iscrizione | Disclaimer

   EN    FR    IT 

 










Sommario :    VFR   VFR Marginale   IFR   IFR Intensivo   IFR Molto Intensivo
Visibilità : 
Base nubi : 
>= 8 km
>= 3000ft
5 / 8 km
1000 / 3000 ft
1500m / 5 km
500 / 1000 ft
800 / 1500m
200 / 500 ft
< 800m
< 200 ft
Simboli :   Temporali  Nebbia  Neve Forte  Precipitazioni Forti  Vento > 20 kt
SIGMETs :   Varie  Temporali  Ghiacco  Turbolenza  Onda orograficha  Ceneri Vulcaniche







- Altitudine del aeroporto : 333 ft


LIPL - Ghedi Brescia (Mil)

ULTIMO METAR :
  • 181155Z 18002KT 9999 FEW030 27/17 Q1014 RMK FEW VIS MIN 9999 WIND THR31 22004KT WIND THR13 13004KT BLU

METARs OBSOLETI :
  • 181055Z 18003KT 9999 FEW030 27/17 Q1015 RMK FEW VIS MIN 9999 WIND THR31 16003KT WIND THR13 18003KT BLU
  • 180955Z 16004KT CAVOK 26/17 Q1015 RMK SKC VIS MIN 9999 WIND THR31 15003KT WIND THR13 17003KT BLU

TAF TAF LIPL
Valido dal 18 a 12 ore il 18 a 21 ore UTC


181100Z 1812/1821 15005KT 9999 FEW035
Nessun NOTAM noto per questo aeroporto.



MetMap, La meteo Aeronautica in un colpo d'occhio ! - Copyright ORBIFLY Dicembre 2007 - Disclaimer

ORBIFLY MET'MAP TEAM :

Programmazione e sviluppo : Alexandra Zaïnal
Concezione e sviluppo : Baudouin d'Aumeries
Co-Programmazione e sviluppo : Marc-Olivier Méhu
Supporto tecnico e logistico : Manuel Goepfert
Aiuto per la traduzione : Arnaldo La Scala

Contatto : metmap@orbifly.com




FONTI E CREDITI :

   NOAA